Terminal Aerodrome Forecast
Issued by NWS Memphis, TN

Home | Current Version | Previous Version | Text Only | Print | Product List | Glossary On
Versions: 1 2 3 4 5 6 7 8 9 10 11 12 13 14 15 16 17
991
FTUS44 KMEG 162332
TAFMKL
TAF
KMKL 162332Z 1700/1724 19005KT P6SM FEW035 SCT250
      TEMPO 1709/1713 3SM BR SCT010
     FM171300 22011KT P6SM VCSH FEW015 BKN035 OVC150
     FM171800 23011G17KT P6SM VCTS SCT035CB BKN050
      TEMPO 1719/1723 6SM SHRA BKN035=

USA.gov is the U.S. government's official web portal to all federal, state and local government web resources and services.